createdAt,value
2023-03-10T00:01:12.803Z,1.50
2023-03-10T00:03:40.934Z,1.37
2023-03-10T00:06:11.391Z,1.47
2023-03-10T00:08:39.486Z,1.30
2023-03-10T00:11:07.564Z,1.20
2023-03-10T00:13:35.468Z,1.30
2023-03-10T00:16:03.537Z,1.60
2023-03-10T00:18:31.795Z,1.50
2023-03-10T00:20:59.903Z,2.08
2023-03-10T00:23:29.195Z,1.58
2023-03-10T00:25:58.233Z,1.60
2023-03-10T00:28:27.956Z,1.45
2023-03-10T00:31:00.569Z,1.43
2023-03-10T00:33:28.586Z,1.83
2023-03-10T00:36:05.048Z,1.53
2023-03-10T00:38:34.947Z,1.50
2023-03-10T00:41:04.979Z,1.67
2023-03-10T00:43:34.632Z,1.47
2023-03-10T00:46:02.946Z,1.30
2023-03-10T00:48:31.105Z,1.37
2023-03-10T00:50:59.632Z,1.57
2023-03-10T00:53:28.390Z,1.50
2023-03-10T00:56:02.388Z,1.60
2023-03-10T00:58:32.149Z,1.50
2023-03-10T01:01:01.056Z,1.40
2023-03-10T01:03:30.146Z,1.67
2023-03-10T01:05:58.699Z,1.50
2023-03-10T01:08:26.732Z,1.43
2023-03-10T01:10:54.724Z,1.40
2023-03-10T01:13:24.003Z,1.70
2023-03-10T01:15:51.943Z,1.27
2023-03-10T01:18:21.630Z,1.37
2023-03-10T01:20:50.146Z,1.60
2023-03-10T01:23:20.532Z,1.60
2023-03-10T01:25:48.644Z,1.50
2023-03-10T01:28:17.448Z,1.60
2023-03-10T01:30:47.297Z,1.53
2023-03-10T01:33:16.271Z,1.10
2023-03-10T01:35:44.681Z,1.40
2023-03-10T01:38:12.814Z,1.50
2023-03-10T01:40:41.873Z,1.20
2023-03-10T01:43:31.723Z,1.30
2023-03-10T01:46:35.157Z,1.40
2023-03-10T01:49:07.753Z,1.33
2023-03-10T01:51:38.049Z,1.40
2023-03-10T01:54:10.546Z,1.57
2023-03-10T01:56:39.720Z,1.43
2023-03-10T01:59:08.224Z,1.40
2023-03-10T02:01:37.989Z,1.50
2023-03-10T02:04:10.057Z,1.47
2023-03-10T02:06:41.852Z,1.73
2023-03-10T02:09:10.842Z,1.30
2023-03-10T02:11:39.658Z,1.30
2023-03-10T02:14:08.083Z,1.70
2023-03-10T02:16:37.487Z,1.50
2023-03-10T02:19:10.628Z,1.60
2023-03-10T02:21:45.617Z,1.70
2023-03-10T02:24:22.422Z,1.77
2023-03-10T02:26:57.416Z,1.73
2023-03-10T02:29:31.945Z,1.90
2023-03-10T02:32:01.028Z,1.70
2023-03-10T02:34:29.735Z,1.80
2023-03-10T02:36:57.811Z,2.43
2023-03-10T02:39:25.771Z,1.67
2023-03-10T02:41:54.329Z,1.70
2023-03-10T02:44:24.641Z,1.67
2023-03-10T02:46:54.074Z,1.50
2023-03-10T02:49:24.620Z,1.40
2023-03-10T02:51:52.700Z,1.40
2023-03-10T02:54:20.717Z,1.73
2023-03-10T02:56:48.625Z,1.57
2023-03-10T02:59:16.683Z,1.90
2023-03-10T03:01:44.738Z,1.30
2023-03-10T03:04:14.028Z,1.40
2023-03-10T03:06:44.121Z,1.40
2023-03-10T03:09:12.071Z,1.67
2023-03-10T03:11:40.076Z,1.83
2023-03-10T03:14:08.302Z,1.67
2023-03-10T03:16:36.274Z,2.00
2023-03-10T03:19:04.157Z,1.50
2023-03-10T03:21:33.477Z,1.88
2023-03-10T03:24:01.373Z,1.63
2023-03-10T03:26:29.332Z,1.73
2023-03-10T03:28:57.419Z,1.85
2023-03-10T03:31:26.576Z,2.17
2023-03-10T03:33:54.624Z,1.50
2023-03-10T03:36:22.517Z,1.77
2023-03-10T03:38:52.062Z,1.48
2023-03-10T03:41:20.006Z,1.80
2023-03-10T03:43:48.124Z,1.70
2023-03-10T03:46:16.226Z,1.70
2023-03-10T03:48:44.258Z,1.63
2023-03-10T03:51:12.196Z,1.35
2023-03-10T03:53:40.020Z,1.53
2023-03-10T03:56:10.180Z,1.55
2023-03-10T03:58:38.179Z,1.90
2023-03-10T04:01:06.337Z,1.53
2023-03-10T04:03:34.250Z,1.52
2023-03-10T04:06:03.015Z,1.75
2023-03-10T04:08:31.099Z,1.90
2023-03-10T04:10:58.980Z,1.73
2023-03-10T04:13:28.272Z,1.67
2023-03-10T04:15:57.269Z,1.73
2023-03-10T04:18:25.617Z,1.65
2023-03-10T04:20:53.576Z,1.55
2023-03-10T04:23:21.559Z,1.80
2023-03-10T04:25:49.762Z,1.67
2023-03-10T04:28:17.664Z,1.80
2023-03-10T04:30:48.438Z,1.88
2023-03-10T04:33:16.733Z,2.40
2023-03-10T04:35:47.625Z,1.88
2023-03-10T04:38:15.948Z,1.70
2023-03-10T04:40:44.140Z,1.60
2023-03-10T04:43:12.039Z,2.10
2023-03-10T04:45:39.956Z,1.88
2023-03-10T04:48:09.323Z,1.80
2023-03-10T04:50:37.214Z,1.90
2023-03-10T04:53:05.234Z,1.85
2023-03-10T04:55:33.452Z,4.90
2023-03-10T04:58:01.671Z,2.23
2023-03-10T05:00:29.896Z,2.17
2023-03-10T05:02:57.814Z,2.60
2023-03-10T05:05:27.639Z,2.50
2023-03-10T05:07:58.697Z,2.50
2023-03-10T05:10:26.680Z,1.83
2023-03-10T05:12:54.736Z,1.90
2023-03-10T05:15:23.736Z,2.23
2023-03-10T05:17:51.897Z,2.13
2023-03-10T05:20:20.580Z,2.07
2023-03-10T05:22:49.892Z,2.60
2023-03-10T05:25:19.309Z,2.70
2023-03-10T05:27:47.187Z,2.30
2023-03-10T05:30:16.748Z,2.73
2023-03-10T05:32:45.027Z,2.77
2023-03-10T05:35:14.754Z,2.20
2023-03-10T05:37:44.554Z,2.40
2023-03-10T05:40:15.738Z,2.40
2023-03-10T05:42:45.962Z,2.40
2023-03-10T05:49:08.262Z,2.80
2023-03-10T05:51:36.152Z,3.30
2023-03-10T05:54:06.056Z,2.60
2023-03-10T05:56:35.388Z,2.57
2023-03-10T05:59:03.311Z,2.70
2023-03-10T06:01:31.581Z,2.80
2023-03-10T06:03:59.532Z,2.83
2023-03-10T06:06:27.522Z,2.60
2023-03-10T06:08:55.602Z,2.87
2023-03-10T06:11:24.176Z,2.80
2023-03-10T06:13:53.725Z,2.60
2023-03-10T06:16:21.741Z,2.60
2023-03-10T06:18:55.122Z,2.50
2023-03-10T06:21:23.568Z,3.17
2023-03-10T06:23:52.372Z,2.60
2023-03-10T06:26:20.313Z,3.67
2023-03-10T06:28:48.717Z,2.75
2023-03-10T06:31:20.681Z,2.90
2023-03-10T06:33:48.837Z,2.53
2023-03-10T06:36:18.291Z,2.90
2023-03-10T06:38:46.311Z,2.70
2023-03-10T06:41:14.593Z,3.72
2023-03-10T06:43:42.630Z,4.72
2023-03-10T06:46:12.357Z,5.68
2023-03-10T06:48:42.916Z,2.95
2023-03-10T06:51:12.716Z,7.30
2023-03-10T06:53:41.058Z,4.20
2023-03-10T06:56:12.155Z,2.80
2023-03-10T06:58:40.874Z,2.40
2023-03-10T07:01:11.250Z,2.45
2023-03-10T07:03:39.357Z,2.90
2023-03-10T07:06:08.973Z,2.15
2023-03-10T07:08:36.887Z,2.40
2023-03-10T07:11:05.031Z,2.50
2023-03-10T07:13:33.437Z,2.45
2023-03-10T07:16:01.361Z,2.20
2023-03-10T07:18:29.807Z,2.42
2023-03-10T07:26:37.583Z,1.75
2023-03-10T07:29:05.566Z,2.03
2023-03-10T07:31:34.812Z,2.15
2023-03-10T07:34:03.106Z,2.67
2023-03-10T07:36:31.145Z,2.03
2023-03-10T07:39:00.478Z,1.83
2023-03-10T07:41:28.470Z,1.77
2023-03-10T07:43:56.552Z,1.83
2023-03-10T07:46:25.016Z,4.82
2023-03-10T07:48:53.919Z,2.83
2023-03-10T07:51:22.100Z,2.25
2023-03-10T07:53:50.119Z,2.60
2023-03-10T07:56:19.584Z,2.10
2023-03-10T07:58:47.623Z,2.72
2023-03-10T08:01:18.542Z,2.30
2023-03-10T08:03:47.465Z,2.20
2023-03-10T08:06:19.655Z,2.00
2023-03-10T08:08:47.848Z,2.08
2023-03-10T08:11:15.945Z,1.92
2023-03-10T08:13:47.603Z,1.70
2023-03-10T08:16:16.723Z,1.45
2023-03-10T08:18:44.787Z,1.60
2023-03-10T08:21:12.998Z,1.90
2023-03-10T08:23:41.031Z,2.20
2023-03-10T08:26:12.222Z,1.70
2023-03-10T08:28:40.981Z,2.42
2023-03-10T08:31:12.611Z,2.13
2023-03-10T08:33:41.388Z,2.45
2023-03-10T08:36:12.392Z,2.10
2023-03-10T08:38:41.060Z,2.13
2023-03-10T08:41:17.289Z,2.17
2023-03-10T08:43:48.842Z,2.15
2023-03-10T08:46:19.472Z,2.30
2023-03-10T08:48:47.858Z,2.30
2023-03-10T08:51:16.803Z,2.50
2023-03-10T08:53:47.173Z,3.30
2023-03-10T08:56:16.298Z,3.03
2023-03-10T08:58:44.496Z,2.33
2023-03-10T09:01:13.299Z,2.20
2023-03-10T09:03:45.198Z,2.03
2023-03-10T09:06:13.725Z,2.22
2023-03-10T09:08:42.299Z,2.30
2023-03-10T09:11:11.854Z,2.08
2023-03-10T09:13:40.215Z,2.50
2023-03-10T09:16:11.326Z,2.13
2023-03-10T09:18:39.706Z,2.70
2023-03-10T09:21:09.692Z,3.42
2023-03-10T09:23:37.988Z,2.63
2023-03-10T09:26:06.408Z,2.42
2023-03-10T09:28:34.547Z,3.28
2023-03-10T09:31:06.077Z,2.78
2023-03-10T09:33:34.079Z,2.80
2023-03-10T09:36:07.385Z,2.95
2023-03-10T09:38:38.077Z,2.75
2023-03-10T09:41:21.820Z,3.80
2023-03-10T09:43:57.226Z,2.80
2023-03-10T09:46:29.248Z,3.22
2023-03-10T09:49:04.140Z,3.28
2023-03-10T09:51:32.279Z,3.10
2023-03-10T09:54:18.036Z,4.18
2023-03-10T09:56:46.070Z,3.72
2023-03-10T09:59:22.586Z,4.47
2023-03-10T10:02:10.836Z,3.90
2023-03-10T10:04:58.603Z,7.00
2023-03-10T10:07:32.501Z,3.92
2023-03-10T10:10:17.110Z,4.07
2023-03-10T10:15:35.550Z,3.40
2023-03-10T10:18:30.204Z,3.22
2023-03-10T10:21:10.527Z,3.05
2023-03-10T10:23:44.878Z,3.40
2023-03-10T10:26:22.898Z,3.00
2023-03-10T10:29:03.632Z,3.10
2023-03-10T10:31:35.837Z,3.20
2023-03-10T10:34:08.994Z,3.38
2023-03-10T10:36:40.152Z,3.13
2023-03-10T10:39:28.514Z,3.22
